createdAt,value
2019-03-27T00:00:10.444Z,6.00
2019-03-27T00:02:39.491Z,5.90
2019-03-27T00:05:08.362Z,6.00
2019-03-27T00:07:37.215Z,6.00
2019-03-27T00:10:07.684Z,6.10
2019-03-27T00:12:36.903Z,6.00
2019-03-27T00:15:13.191Z,6.00
2019-03-27T00:17:38.494Z,5.90
2019-03-27T00:20:08.855Z,6.10
2019-03-27T00:22:37.789Z,6.20
2019-03-27T00:25:08.328Z,6.00
2019-03-27T00:27:37.334Z,6.10
2019-03-27T00:30:06.848Z,6.20
2019-03-27T00:32:35.739Z,6.10
2019-03-27T00:35:04.872Z,6.10
2019-03-27T00:37:33.656Z,6.20
2019-03-27T00:40:02.556Z,6.20
2019-03-27T00:42:31.341Z,6.00
2019-03-27T00:45:00.389Z,6.20
2019-03-27T00:47:29.175Z,6.20
2019-03-27T00:49:57.909Z,6.10
2019-03-27T00:52:26.671Z,6.00
2019-03-27T00:54:55.942Z,6.10
2019-03-27T00:57:24.747Z,6.20
2019-03-27T00:59:53.635Z,6.20
2019-03-27T01:02:22.369Z,6.20
2019-03-27T01:04:51.113Z,6.20
2019-03-27T01:07:19.867Z,6.00
2019-03-27T01:09:48.917Z,6.20
2019-03-27T01:12:17.885Z,6.10
2019-03-27T01:14:46.948Z,6.10
2019-03-27T01:17:15.771Z,6.00
2019-03-27T01:19:44.752Z,6.00
2019-03-27T01:22:13.572Z,6.10
2019-03-27T01:24:42.586Z,6.00
2019-03-27T01:27:11.291Z,5.90
2019-03-27T01:29:40.211Z,6.10
2019-03-27T01:32:09.306Z,6.30
2019-03-27T01:34:38.206Z,6.30
2019-03-27T01:37:07.428Z,6.30
2019-03-27T01:39:36.132Z,6.30
2019-03-27T01:42:05.620Z,6.20
2019-03-27T01:44:34.399Z,6.30
2019-03-27T01:47:03.182Z,6.40
2019-03-27T01:49:32.214Z,6.60
2019-03-27T01:52:00.897Z,6.50
2019-03-27T01:54:29.609Z,6.60
2019-03-27T01:56:58.873Z,6.60
2019-03-27T01:59:27.683Z,6.70
2019-03-27T02:01:56.547Z,6.50
2019-03-27T02:04:25.486Z,6.50
2019-03-27T02:06:54.155Z,6.40
2019-03-27T02:09:22.853Z,6.60
2019-03-27T02:11:51.665Z,6.50
2019-03-27T02:14:20.477Z,6.50
2019-03-27T02:16:49.233Z,6.70
2019-03-27T02:19:18.453Z,6.60
2019-03-27T02:21:47.838Z,6.60
2019-03-27T02:24:16.682Z,6.60
2019-03-27T02:26:45.464Z,6.80
2019-03-27T02:29:14.307Z,6.70
2019-03-27T02:31:43.406Z,6.80
2019-03-27T02:34:12.283Z,6.80
2019-03-27T02:36:41.138Z,6.70
2019-03-27T02:39:09.986Z,6.60
2019-03-27T02:41:38.900Z,6.70
2019-03-27T02:44:07.600Z,6.70
2019-03-27T02:46:36.331Z,6.70
2019-03-27T02:49:05.142Z,6.80
2019-03-27T02:51:34.038Z,6.70
2019-03-27T02:54:02.788Z,6.80
2019-03-27T02:56:31.643Z,7.00
2019-03-27T02:59:00.691Z,7.00
2019-03-27T03:01:29.483Z,7.00
2019-03-27T03:03:58.265Z,7.10
2019-03-27T03:06:27.445Z,7.00
2019-03-27T03:08:56.204Z,6.90
2019-03-27T03:11:25.406Z,6.90
2019-03-27T03:13:54.397Z,6.80
2019-03-27T03:16:40.948Z,7.00
2019-03-27T03:18:54.372Z,6.90
2019-03-27T03:21:23.148Z,6.70
2019-03-27T03:23:52.454Z,6.60
2019-03-27T03:26:21.543Z,6.60
2019-03-27T03:28:50.465Z,6.50
2019-03-27T03:31:19.459Z,6.50
2019-03-27T03:33:48.769Z,6.60
2019-03-27T03:36:17.739Z,6.60
2019-03-27T03:38:46.506Z,6.60
2019-03-27T03:41:15.402Z,6.70
2019-03-27T03:43:44.161Z,6.70
2019-03-27T03:46:12.878Z,6.70
2019-03-27T03:48:41.885Z,6.60
2019-03-27T03:51:10.987Z,6.70
2019-03-27T03:53:39.857Z,6.60
2019-03-27T03:56:09.913Z,6.70
2019-03-27T03:58:40.698Z,6.80
2019-03-27T04:01:11.287Z,6.80
2019-03-27T04:03:42.353Z,6.90
2019-03-27T04:06:11.316Z,7.00
2019-03-27T04:08:40.391Z,6.80
2019-03-27T04:11:09.169Z,6.60
2019-03-27T04:13:38.544Z,6.90
2019-03-27T04:16:07.515Z,6.80
2019-03-27T04:18:36.425Z,6.70
2019-03-27T04:21:05.381Z,6.50
2019-03-27T04:23:34.545Z,6.80
2019-03-27T04:26:09.712Z,6.80
2019-03-27T04:28:34.315Z,6.60
2019-03-27T04:31:03.205Z,6.50
2019-03-27T04:33:32.120Z,6.60
2019-03-27T04:36:01.362Z,6.80
2019-03-27T04:38:30.319Z,6.80
2019-03-27T04:40:59.331Z,6.80
2019-03-27T04:43:28.162Z,6.80
2019-03-27T04:45:57.077Z,6.70
2019-03-27T04:48:25.900Z,6.70
2019-03-27T04:50:54.789Z,6.70
2019-03-27T04:53:23.663Z,6.70
2019-03-27T04:55:52.613Z,6.70
2019-03-27T04:58:21.431Z,6.60
2019-03-27T05:00:50.225Z,6.50
2019-03-27T05:03:18.909Z,6.50
2019-03-27T05:05:47.779Z,6.60
2019-03-27T05:08:16.534Z,6.40
2019-03-27T05:10:45.286Z,6.60
2019-03-27T05:13:14.088Z,6.70
2019-03-27T05:15:42.954Z,6.70
2019-03-27T05:18:11.744Z,6.70
2019-03-27T05:20:40.629Z,6.70
2019-03-27T05:23:09.758Z,6.80
2019-03-27T05:25:38.573Z,6.80
2019-03-27T05:28:07.455Z,6.70
2019-03-27T05:30:36.530Z,6.80
2019-03-27T05:33:05.181Z,6.70
2019-03-27T05:35:34.018Z,6.60
2019-03-27T05:38:02.956Z,6.50
2019-03-27T05:40:31.757Z,6.50
2019-03-27T05:43:01.366Z,6.70
2019-03-27T05:45:30.831Z,6.70
2019-03-27T05:48:00.150Z,6.80
2019-03-27T05:50:29.442Z,6.90
2019-03-27T05:52:58.273Z,7.10
2019-03-27T05:55:27.263Z,7.20
2019-03-27T05:57:56.233Z,7.20
2019-03-27T06:00:25.172Z,7.10
2019-03-27T06:02:54.354Z,7.10
2019-03-27T06:05:23.167Z,7.20
2019-03-27T06:07:51.915Z,7.20
2019-03-27T06:10:21.021Z,7.30
2019-03-27T06:12:49.846Z,7.30
2019-03-27T06:15:18.860Z,7.40
2019-03-27T06:17:47.559Z,7.20
2019-03-27T06:20:16.543Z,7.30
2019-03-27T06:22:45.298Z,7.40
2019-03-27T06:25:14.480Z,7.60
2019-03-27T06:27:43.278Z,7.60
2019-03-27T06:30:12.262Z,7.50
2019-03-27T06:32:41.499Z,7.60
2019-03-27T06:35:10.507Z,7.60
2019-03-27T06:37:39.550Z,7.50
2019-03-27T06:40:08.706Z,7.40
2019-03-27T06:42:37.594Z,7.40
2019-03-27T06:45:08.179Z,7.40
2019-03-27T06:47:36.961Z,7.50
2019-03-27T06:50:07.225Z,7.50
2019-03-27T06:52:35.997Z,7.50
2019-03-27T06:55:07.374Z,7.80
2019-03-27T06:57:37.180Z,8.00
2019-03-27T07:00:09.611Z,8.10
2019-03-27T07:02:38.971Z,8.00
2019-03-27T07:05:08.120Z,8.00
2019-03-27T07:07:37.233Z,8.00
2019-03-27T07:10:06.704Z,8.30
2019-03-27T07:12:35.448Z,8.50
2019-03-27T07:15:05.362Z,8.80
2019-03-27T07:17:34.202Z,9.10
2019-03-27T07:20:03.650Z,9.50
2019-03-27T07:22:32.390Z,9.70
2019-03-27T07:25:01.277Z,9.80
2019-03-27T07:27:30.429Z,9.80
2019-03-27T07:29:59.356Z,9.60
2019-03-27T07:32:28.710Z,9.60
2019-03-27T07:34:57.416Z,9.60
2019-03-27T07:37:26.253Z,9.60
2019-03-27T07:39:55.104Z,9.50
2019-03-27T07:42:24.005Z,8.90
2019-03-27T07:44:52.979Z,8.60
2019-03-27T07:47:21.842Z,8.60
2019-03-27T07:49:50.910Z,8.80
2019-03-27T07:52:20.153Z,8.90
2019-03-27T07:54:49.098Z,8.80
2019-03-27T07:57:18.028Z,8.90
2019-03-27T07:59:46.971Z,9.10
2019-03-27T08:02:16.282Z,9.20
2019-03-27T08:04:45.439Z,9.30
2019-03-27T08:07:26.158Z,9.30
2019-03-27T08:09:46.054Z,9.50
2019-03-27T08:12:15.248Z,9.80
2019-03-27T08:14:44.061Z,10.20
2019-03-27T08:17:13.478Z,10.40
2019-03-27T08:19:42.387Z,10.70
2019-03-27T08:22:11.746Z,11.00
2019-03-27T08:24:40.722Z,11.20
2019-03-27T08:27:09.473Z,11.30
2019-03-27T08:29:38.511Z,11.20
2019-03-27T08:32:07.499Z,11.30
2019-03-27T08:34:36.294Z,11.40
2019-03-27T08:37:05.229Z,11.50
2019-03-27T08:39:34.096Z,11.40
2019-03-27T08:42:02.893Z,11.40
2019-03-27T08:44:31.705Z,11.60
2019-03-27T08:47:00.527Z,11.60
2019-03-27T08:49:29.478Z,11.60
2019-03-27T08:51:58.284Z,11.70
2019-03-27T08:54:27.100Z,11.40
2019-03-27T08:56:55.997Z,11.10
2019-03-27T08:59:24.985Z,11.00
2019-03-27T09:01:53.825Z,11.00
2019-03-27T09:04:23.243Z,11.10
2019-03-27T09:06:52.253Z,11.30
2019-03-27T09:09:21.539Z,11.30
2019-03-27T09:11:50.606Z,11.50
2019-03-27T09:14:19.617Z,11.70
2019-03-27T09:16:48.815Z,11.60
2019-03-27T09:19:17.824Z,11.60
2019-03-27T09:21:46.722Z,11.60
2019-03-27T09:24:15.762Z,11.60
2019-03-27T09:26:44.573Z,11.60
2019-03-27T09:29:13.827Z,11.70
2019-03-27T09:31:45.189Z,11.40
2019-03-27T09:34:13.703Z,11.40
2019-03-27T09:36:42.537Z,11.30
2019-03-27T09:39:11.429Z,11.30
2019-03-27T09:41:40.390Z,11.30
2019-03-27T09:44:09.333Z,11.30
2019-03-27T09:46:38.518Z,11.30
2019-03-27T09:49:07.569Z,11.40
2019-03-27T09:51:36.614Z,11.30
2019-03-27T09:54:05.825Z,11.30
2019-03-27T09:56:34.788Z,11.30
2019-03-27T09:59:06.038Z,11.40
2019-03-27T10:01:34.696Z,11.40
2019-03-27T10:04:03.606Z,11.10
2019-03-27T10:06:32.911Z,11.10
2019-03-27T10:09:01.891Z,11.00
2019-03-27T10:11:30.753Z,10.90
2019-03-27T10:13:59.862Z,10.80
2019-03-27T10:16:28.612Z,10.60
2019-03-27T10:18:57.763Z,10.90
2019-03-27T10:21:26.583Z,11.10
2019-03-27T10:23:55.525Z,11.40
2019-03-27T10:26:24.385Z,11.70
2019-03-27T10:28:53.131Z,11.90
2019-03-27T10:31:21.939Z,12.20
2019-03-27T10:33:51.028Z,12.30
2019-03-27T10:36:20.185Z,12.20
2019-03-27T10:38:49.929Z,12.30
2019-03-27T10:41:18.815Z,11.90
2019-03-27T10:43:47.552Z,11.50
2019-03-27T10:46:16.296Z,11.50
2019-03-27T10:48:52.345Z,11.60
2019-03-27T10:51:15.980Z,11.30
2019-03-27T10:53:44.761Z,11.30
2019-03-27T10:56:14.001Z,11.60
2019-03-27T10:58:42.867Z,12.00
2019-03-27T11:01:12.198Z,12.20
2019-03-27T11:03:41.328Z,12.50
2019-03-27T11:06:10.330Z,12.80
2019-03-27T11:08:39.206Z,12.80
2019-03-27T11:11:08.206Z,12.80
2019-03-27T11:13:37.034Z,13.10
2019-03-27T11:16:05.851Z,13.40
2019-03-27T11:18:34.695Z,13.80
2019-03-27T11:21:03.614Z,14.10
2019-03-27T11:23:32.367Z,13.50
2019-03-27T11:26:01.145Z,13.20
2019-03-27T11:28:30.626Z,12.70
2019-03-27T11:30:59.560Z,12.30
2019-03-27T11:33:28.992Z,12.40
2019-03-27T11:35:58.004Z,12.70
2019-03-27T11:38:27.122Z,12.90
2019-03-27T11:40:56.217Z,13.10
2019-03-27T11:43:25.327Z,13.20
2019-03-27T11:45:54.041Z,13.10
2019-03-27T11:48:22.937Z,13.20
2019-03-27T11:50:52.066Z,12.60
2019-03-27T11:53:20.953Z,12.70
2019-03-27T11:55:49.920Z,12.80
2019-03-27T11:58:19.838Z,12.70
2019-03-27T12:00:54.781Z,12.60
2019-03-27T12:03:19.299Z,12.70
2019-03-27T12:05:48.709Z,12.40
2019-03-27T12:08:17.837Z,11.80
2019-03-27T12:10:46.771Z,12.00
2019-03-27T12:13:17.324Z,12.30
2019-03-27T12:15:46.150Z,12.10
2019-03-27T12:18:16.435Z,12.20
2019-03-27T12:20:58.171Z,12.40
2019-03-27T12:23:16.263Z,12.80
2019-03-27T12:25:45.149Z,13.10
2019-03-27T12:28:14.072Z,13.50
2019-03-27T12:30:43.047Z,13.60
2019-03-27T12:33:11.884Z,13.70
2019-03-27T12:35:41.374Z,13.00
2019-03-27T12:38:10.193Z,12.90
2019-03-27T12:40:39.082Z,13.40
2019-03-27T12:43:08.088Z,13.70
2019-03-27T12:45:36.825Z,13.90
2019-03-27T12:48:06.468Z,13.90
2019-03-27T12:50:35.943Z,13.70
2019-03-27T12:53:05.157Z,13.60
2019-03-27T12:55:34.264Z,13.50
2019-03-27T12:58:03.219Z,13.40
2019-03-27T13:00:32.298Z,13.40
2019-03-27T13:03:01.237Z,13.20
2019-03-27T13:05:29.994Z,13.30
2019-03-27T13:07:59.007Z,13.10
2019-03-27T13:10:27.878Z,13.30
2019-03-27T13:12:56.818Z,13.60
2019-03-27T13:15:25.680Z,13.80
2019-03-27T13:17:54.680Z,14.10
2019-03-27T13:20:23.712Z,14.40
2019-03-27T13:22:52.660Z,13.20
2019-03-27T13:25:21.399Z,12.80
2019-03-27T13:27:50.296Z,13.00
2019-03-27T13:30:19.510Z,13.10
2019-03-27T13:32:49.018Z,12.80
2019-03-27T13:35:17.755Z,13.00
2019-03-27T13:37:46.671Z,13.30
2019-03-27T13:40:16.216Z,13.70
2019-03-27T13:42:45.174Z,14.00
2019-03-27T13:45:14.823Z,14.20
2019-03-27T13:47:44.091Z,14.30
2019-03-27T13:50:14.829Z,14.30
2019-03-27T13:52:44.017Z,14.20
2019-03-27T13:55:13.131Z,14.50
2019-03-27T13:57:41.920Z,15.10
2019-03-27T14:00:12.151Z,14.90
2019-03-27T14:02:40.907Z,13.50
2019-03-27T14:05:10.748Z,13.30
2019-03-27T14:07:39.738Z,13.40
2019-03-27T14:10:08.971Z,12.80
2019-03-27T14:12:37.894Z,12.70
2019-03-27T14:15:08.127Z,12.70
2019-03-27T14:17:37.012Z,13.10
2019-03-27T14:20:07.952Z,13.40
2019-03-27T14:22:37.007Z,13.70
2019-03-27T14:25:08.050Z,13.80
2019-03-27T14:27:37.019Z,13.50
2019-03-27T14:30:10.240Z,13.00
2019-03-27T14:32:39.276Z,12.90
2019-03-27T14:35:10.347Z,13.10
2019-03-27T14:37:39.324Z,13.40
2019-03-27T14:40:09.690Z,13.10
2019-03-27T14:42:38.762Z,12.70
2019-03-27T14:45:09.768Z,13.00
2019-03-27T14:47:39.096Z,13.10
2019-03-27T14:50:09.420Z,13.30
2019-03-27T14:52:38.921Z,13.70
2019-03-27T14:55:08.943Z,13.70
2019-03-27T14:57:38.533Z,13.70
2019-03-27T15:00:09.727Z,13.30
2019-03-27T15:02:38.764Z,13.50
2019-03-27T15:05:08.290Z,13.60
2019-03-27T15:07:37.272Z,13.80
2019-03-27T15:10:07.936Z,13.70
2019-03-27T15:12:36.797Z,13.10
2019-03-27T15:15:06.894Z,13.40
2019-03-27T15:17:35.772Z,13.40
2019-03-27T15:20:05.803Z,13.70
2019-03-27T15:22:37.468Z,13.90
2019-03-27T15:25:07.526Z,13.90
2019-03-27T15:27:36.744Z,14.40
2019-03-27T15:30:08.014Z,13.50
2019-03-27T15:32:36.837Z,13.30
2019-03-27T15:35:08.076Z,13.70
2019-03-27T15:37:37.251Z,13.50
2019-03-27T15:40:10.008Z,13.40
2019-03-27T15:42:39.777Z,12.90
2019-03-27T15:45:09.597Z,12.80
2019-03-27T15:47:51.594Z,12.80
2019-03-27T15:50:20.681Z,12.80
2019-03-27T15:52:49.544Z,12.80
2019-03-27T15:55:18.508Z,12.70
2019-03-27T15:57:47.236Z,12.80
2019-03-27T16:00:16.339Z,12.90
2019-03-27T16:02:45.150Z,12.70
2019-03-27T16:05:14.161Z,12.60
2019-03-27T16:07:43.011Z,12.60
2019-03-27T16:10:12.064Z,12.60
2019-03-27T16:12:41.476Z,12.70
2019-03-27T16:15:10.691Z,12.80
2019-03-27T16:17:39.514Z,12.70
2019-03-27T16:20:08.879Z,12.80
2019-03-27T16:22:50.044Z,12.70
2019-03-27T16:25:08.544Z,13.00
2019-03-27T16:27:37.478Z,13.20
2019-03-27T16:30:06.830Z,13.00
2019-03-27T16:32:35.610Z,13.00
2019-03-27T16:35:04.827Z,12.80
2019-03-27T16:37:33.771Z,12.80
2019-03-27T16:40:03.262Z,12.90
2019-03-27T16:42:32.069Z,12.70
2019-03-27T16:45:00.992Z,12.70
2019-03-27T16:47:29.906Z,12.70
2019-03-27T16:49:58.729Z,12.70
2019-03-27T16:52:28.155Z,12.60
2019-03-27T16:54:56.998Z,12.60
2019-03-27T16:57:25.974Z,12.40
2019-03-27T16:59:54.766Z,12.30
2019-03-27T17:02:23.621Z,12.30
2019-03-27T17:04:53.066Z,12.30
2019-03-27T17:07:21.834Z,12.40
2019-03-27T17:09:50.783Z,12.30
2019-03-27T17:12:19.794Z,12.20
2019-03-27T17:14:49.177Z,12.20
2019-03-27T17:17:18.120Z,12.10
2019-03-27T17:19:47.565Z,12.00
2019-03-27T17:22:19.699Z,12.00
2019-03-27T17:24:47.144Z,11.90
2019-03-27T17:27:16.080Z,11.90
2019-03-27T17:29:48.270Z,11.90
2019-03-27T17:32:17.135Z,11.80
2019-03-27T17:34:46.097Z,11.80
2019-03-27T17:37:15.120Z,11.70
2019-03-27T17:39:43.835Z,11.70
2019-03-27T17:42:13.177Z,11.70
2019-03-27T17:44:42.125Z,11.60
2019-03-27T17:47:11.295Z,11.60
2019-03-27T17:49:40.063Z,11.50
2019-03-27T17:52:08.833Z,11.40
2019-03-27T17:54:37.866Z,11.40
2019-03-27T17:57:06.972Z,11.30
2019-03-27T17:59:35.883Z,11.20
2019-03-27T18:02:04.725Z,11.10
2019-03-27T18:04:33.595Z,11.00
2019-03-27T18:07:02.939Z,11.00
2019-03-27T18:09:32.366Z,10.90
2019-03-27T18:12:01.365Z,10.80
2019-03-27T18:14:30.329Z,10.70
2019-03-27T18:16:59.407Z,10.60
2019-03-27T18:19:28.414Z,10.50
2019-03-27T18:22:07.139Z,10.50
2019-03-27T18:24:27.947Z,10.40
2019-03-27T18:26:57.315Z,10.30
2019-03-27T18:29:26.243Z,10.30
2019-03-27T18:31:55.147Z,10.20
2019-03-27T18:34:23.871Z,10.10
2019-03-27T18:36:52.949Z,10.10
2019-03-27T18:39:21.706Z,10.00
2019-03-27T18:41:50.627Z,10.00
2019-03-27T18:44:19.823Z,10.00
2019-03-27T18:46:48.631Z,9.90
2019-03-27T18:49:17.668Z,9.90
2019-03-27T18:51:46.609Z,9.90
2019-03-27T18:54:15.430Z,9.90
2019-03-27T18:56:44.353Z,9.90
2019-03-27T18:59:13.479Z,9.80
2019-03-27T19:01:42.284Z,9.80
2019-03-27T19:04:11.582Z,9.80
2019-03-27T19:06:40.716Z,9.70
2019-03-27T19:09:09.737Z,9.70
2019-03-27T19:11:38.586Z,9.70
2019-03-27T19:14:07.763Z,9.60
2019-03-27T19:16:36.631Z,9.60
2019-03-27T19:19:05.819Z,9.50
2019-03-27T19:21:34.605Z,9.10
2019-03-27T19:24:14.762Z,8.90
2019-03-27T19:26:34.958Z,8.80
2019-03-27T19:29:04.207Z,8.60
2019-03-27T19:31:33.625Z,8.50
2019-03-27T19:34:02.641Z,8.40
2019-03-27T19:36:31.578Z,8.40
2019-03-27T19:39:00.420Z,8.30
2019-03-27T19:41:29.441Z,8.10
2019-03-27T19:43:58.973Z,8.20
2019-03-27T19:46:27.970Z,8.10
2019-03-27T19:48:56.946Z,7.90
2019-03-27T19:51:25.848Z,7.80
2019-03-27T19:53:54.680Z,8.00
2019-03-27T19:56:23.540Z,7.80
2019-03-27T19:58:52.461Z,7.80
2019-03-27T20:01:21.358Z,7.70
2019-03-27T20:03:50.527Z,7.60
2019-03-27T20:06:19.477Z,7.50
2019-03-27T20:08:48.692Z,7.60
2019-03-27T20:11:17.546Z,7.60
2019-03-27T20:13:46.663Z,7.50
2019-03-27T20:16:15.749Z,7.60
2019-03-27T20:18:44.763Z,7.90
2019-03-27T20:21:13.841Z,7.90
2019-03-27T20:23:43.162Z,8.10
2019-03-27T20:26:13.028Z,7.90
2019-03-27T20:28:42.456Z,7.80
2019-03-27T20:31:11.791Z,7.80
2019-03-27T20:33:40.687Z,7.70
2019-03-27T20:36:09.495Z,7.60
2019-03-27T20:38:38.317Z,7.50
2019-03-27T20:41:07.147Z,7.50
2019-03-27T20:43:36.067Z,7.40
2019-03-27T20:46:04.987Z,7.40
2019-03-27T20:48:33.803Z,7.30
2019-03-27T20:51:02.912Z,7.20
2019-03-27T20:53:31.881Z,7.10
2019-03-27T20:56:00.751Z,7.30
2019-03-27T20:58:30.034Z,7.20
2019-03-27T21:00:58.968Z,7.10
2019-03-27T21:03:27.839Z,7.10
2019-03-27T21:05:56.838Z,7.00
2019-03-27T21:08:25.722Z,7.00
2019-03-27T21:10:54.581Z,7.00
2019-03-27T21:13:23.709Z,6.90
2019-03-27T21:15:52.545Z,7.00
2019-03-27T21:18:21.427Z,6.90
2019-03-27T21:20:50.279Z,6.80
2019-03-27T21:23:19.181Z,6.70
2019-03-27T21:25:48.113Z,6.70
2019-03-27T21:28:16.968Z,6.70
2019-03-27T21:30:45.863Z,6.60
2019-03-27T21:33:14.954Z,6.60
2019-03-27T21:35:43.620Z,6.70
2019-03-27T21:38:12.501Z,6.60
2019-03-27T21:40:41.343Z,6.60
2019-03-27T21:43:10.317Z,6.60
2019-03-27T21:45:39.160Z,6.50
2019-03-27T21:48:08.461Z,6.40
2019-03-27T21:50:37.696Z,6.30
2019-03-27T21:53:06.540Z,6.30
2019-03-27T21:55:42.605Z,6.20
2019-03-27T21:58:06.410Z,6.10
2019-03-27T22:00:39.536Z,6.10
2019-03-27T22:03:08.975Z,6.20
2019-03-27T22:05:37.865Z,6.20
2019-03-27T22:08:06.897Z,6.20
2019-03-27T22:10:35.842Z,6.20
2019-03-27T22:13:04.936Z,6.20
2019-03-27T22:15:34.000Z,6.10
2019-03-27T22:18:02.867Z,6.10
2019-03-27T22:20:32.171Z,6.20
2019-03-27T22:23:01.060Z,6.10
2019-03-27T22:25:35.837Z,6.10
2019-03-27T22:28:00.806Z,6.00
2019-03-27T22:30:29.751Z,5.90
2019-03-27T22:32:58.540Z,5.60
2019-03-27T22:35:27.492Z,5.60
2019-03-27T22:37:56.261Z,5.80
2019-03-27T22:40:25.217Z,5.70
2019-03-27T22:42:56.819Z,5.80
2019-03-27T22:45:24.958Z,5.70
2019-03-27T22:47:53.756Z,5.70
2019-03-27T22:50:22.783Z,5.70
2019-03-27T22:52:51.669Z,5.60
2019-03-27T22:55:21.057Z,5.30
2019-03-27T22:57:49.986Z,5.40
2019-03-27T23:00:21.255Z,5.20
2019-03-27T23:02:50.058Z,5.40
2019-03-27T23:05:19.186Z,5.30
2019-03-27T23:07:48.036Z,5.10
2019-03-27T23:10:16.860Z,5.10
2019-03-27T23:12:45.682Z,5.40
2019-03-27T23:15:15.664Z,5.40
2019-03-27T23:17:44.942Z,5.30
2019-03-27T23:20:13.935Z,5.30
2019-03-27T23:22:42.693Z,5.30
2019-03-27T23:25:11.756Z,5.30
2019-03-27T23:27:40.509Z,5.20
2019-03-27T23:30:10.725Z,5.10
2019-03-27T23:32:39.486Z,5.10
2019-03-27T23:35:08.551Z,5.00
2019-03-27T23:37:37.388Z,4.90
2019-03-27T23:40:08.614Z,5.00
2019-03-27T23:42:37.551Z,4.90
2019-03-27T23:45:07.786Z,4.90
2019-03-27T23:47:36.570Z,4.80
2019-03-27T23:50:06.276Z,4.90
2019-03-27T23:52:35.699Z,5.00
2019-03-27T23:55:04.827Z,5.00
2019-03-27T23:57:33.682Z,4.80
